createdAt,value
2023-04-09T00:01:04.559Z,85.12
2023-04-09T00:06:07.140Z,85.34
2023-04-09T00:11:09.308Z,85.67
2023-04-09T00:16:11.491Z,86.08
2023-04-09T00:21:13.721Z,86.04
2023-04-09T00:26:15.922Z,85.94
2023-04-09T00:31:19.439Z,86.13
2023-04-09T00:36:24.636Z,85.80
2023-04-09T00:41:28.238Z,85.61
2023-04-09T00:46:31.797Z,85.31
2023-04-09T00:51:34.122Z,85.26
2023-04-09T00:56:37.250Z,84.79
2023-04-09T01:01:39.351Z,84.63
2023-04-09T01:07:08.570Z,84.63
2023-04-09T01:12:22.047Z,84.52
2023-04-09T01:17:35.999Z,84.78
2023-04-09T01:22:56.986Z,84.91
2023-04-09T01:28:19.366Z,85.28
2023-04-09T01:33:22.781Z,85.47
2023-04-09T01:38:26.530Z,85.26
2023-04-09T01:43:30.533Z,85.16
2023-04-09T01:48:34.163Z,85.23
2023-04-09T01:53:36.503Z,85.19
2023-04-09T01:58:38.667Z,84.99
2023-04-09T02:03:56.665Z,85.33
2023-04-09T02:09:00.947Z,86.15
2023-04-09T02:14:04.031Z,86.87
2023-04-09T02:19:06.291Z,87.57
2023-04-09T02:24:08.607Z,88.17
2023-04-09T02:29:10.725Z,88.82
2023-04-09T02:34:12.861Z,88.82
2023-04-09T02:39:15.054Z,88.94
2023-04-09T02:44:17.199Z,88.85
2023-04-09T02:49:19.471Z,88.77
2023-04-09T02:54:21.652Z,88.57
2023-04-09T02:59:23.909Z,88.21
2023-04-09T03:04:26.356Z,87.82
2023-04-09T03:09:29.403Z,87.37
2023-04-09T03:14:31.664Z,86.77
2023-04-09T03:19:34.395Z,86.62
2023-04-09T03:24:36.651Z,86.43
2023-04-09T03:29:38.853Z,86.27
2023-04-09T03:34:41.028Z,86.18
2023-04-09T03:39:43.250Z,85.99
2023-04-09T03:44:45.442Z,85.82
2023-04-09T03:49:47.645Z,85.67
2023-04-09T03:54:49.804Z,85.79
2023-04-09T03:59:51.989Z,85.83
2023-04-09T04:04:54.282Z,85.71
2023-04-09T04:09:56.426Z,85.84
2023-04-09T04:14:58.770Z,85.69
2023-04-09T04:20:01.260Z,85.39
2023-04-09T04:25:06.883Z,85.13
2023-04-09T04:30:09.506Z,84.77
2023-04-09T04:35:11.769Z,84.54
2023-04-09T04:40:13.912Z,84.54
2023-04-09T04:45:16.051Z,84.26
2023-04-09T04:50:18.254Z,84.35
2023-04-09T04:55:20.446Z,84.10
2023-04-09T05:00:22.742Z,83.66
2023-04-09T05:05:25.096Z,83.30
2023-04-09T05:10:27.350Z,83.37
2023-04-09T05:15:29.487Z,82.98
2023-04-09T05:20:31.618Z,83.02
2023-04-09T05:25:33.738Z,82.86
2023-04-09T05:30:35.868Z,81.46
2023-04-09T05:35:41.016Z,81.11
2023-04-09T05:40:45.111Z,80.64
2023-04-09T05:45:47.499Z,79.95
2023-04-09T05:50:55.162Z,78.98
2023-04-09T05:55:58.134Z,79.09
2023-04-09T06:01:00.425Z,78.76
2023-04-09T06:06:03.231Z,77.84
2023-04-09T06:11:09.820Z,77.53
2023-04-09T06:16:11.972Z,78.06
2023-04-09T06:21:14.313Z,77.17
2023-04-09T06:26:16.435Z,76.81
2023-04-09T06:31:18.646Z,76.70
2023-04-09T06:36:21.386Z,76.03
2023-04-09T06:41:23.906Z,76.03
2023-04-09T06:46:26.366Z,74.92
2023-04-09T06:51:28.609Z,74.60
2023-04-09T06:56:30.788Z,74.00
2023-04-09T07:01:35.661Z,73.77
2023-04-09T07:06:38.080Z,72.44
2023-04-09T07:11:40.414Z,71.84
2023-04-09T07:16:43.071Z,71.08
2023-04-09T07:21:45.260Z,69.80
2023-04-09T07:26:49.941Z,68.23
2023-04-09T07:31:53.470Z,66.67
2023-04-09T07:36:55.765Z,66.64
2023-04-09T07:41:57.926Z,64.88
2023-04-09T07:47:00.859Z,63.46
2023-04-09T07:52:03.863Z,60.90
2023-04-09T07:57:06.930Z,60.11
2023-04-09T08:02:09.331Z,58.70
2023-04-09T08:07:12.267Z,56.48
2023-04-09T08:12:14.572Z,54.90
2023-04-09T08:17:16.750Z,54.06
2023-04-09T08:22:18.975Z,53.72
2023-04-09T08:27:22.144Z,54.32
2023-04-09T08:32:24.370Z,55.03
2023-04-09T08:37:26.887Z,54.40
2023-04-09T08:42:30.061Z,52.91
2023-04-09T08:47:33.474Z,51.99
2023-04-09T08:52:36.987Z,51.82
2023-04-09T08:57:40.026Z,51.53
2023-04-09T09:03:10.158Z,49.04
2023-04-09T09:08:25.008Z,46.87
2023-04-09T09:13:28.175Z,47.38
2023-04-09T09:18:44.560Z,49.81
2023-04-09T09:23:48.509Z,49.84
2023-04-09T09:28:52.087Z,49.38
2023-04-09T09:33:54.894Z,48.91
2023-04-09T09:38:58.497Z,48.66
2023-04-09T09:44:00.809Z,48.93
2023-04-09T09:49:03.174Z,50.38
2023-04-09T09:54:09.243Z,50.41
2023-04-09T09:59:22.319Z,51.07
2023-04-09T10:04:28.582Z,52.28
2023-04-09T10:09:31.417Z,53.42
2023-04-09T10:14:35.955Z,53.82
2023-04-09T10:19:43.185Z,54.05
2023-04-09T10:24:47.191Z,54.54
2023-04-09T10:29:52.006Z,55.34
2023-04-09T10:34:59.482Z,53.94
2023-04-09T10:40:03.899Z,53.47
2023-04-09T10:45:10.595Z,52.74
2023-04-09T10:50:24.489Z,51.96
2023-04-09T10:55:41.757Z,50.85
2023-04-09T11:00:46.640Z,49.37
2023-04-09T11:05:52.794Z,49.63
2023-04-09T11:10:58.430Z,51.67
2023-04-09T11:16:03.470Z,51.48
2023-04-09T11:21:06.374Z,52.90
2023-04-09T11:26:09.816Z,54.88
2023-04-09T11:31:12.017Z,54.43
2023-04-09T11:36:14.259Z,53.35
2023-04-09T11:41:16.610Z,51.17
2023-04-09T11:46:18.869Z,50.69
2023-04-09T11:51:21.185Z,49.19
2023-04-09T11:56:23.349Z,47.12
2023-04-09T12:01:31.621Z,45.92
2023-04-09T12:06:40.222Z,45.58
2023-04-09T12:11:46.489Z,46.24
2023-04-09T12:16:52.535Z,43.67
2023-04-09T12:21:56.495Z,41.09
2023-04-09T12:26:58.802Z,40.79
2023-04-09T12:32:01.064Z,38.19
2023-04-09T12:37:03.275Z,36.60
2023-04-09T12:42:05.599Z,34.79
2023-04-09T12:47:08.105Z,28.40
2023-04-09T12:52:10.300Z,28.32
2023-04-09T12:57:12.473Z,33.61
2023-04-09T13:02:14.751Z,28.55
2023-04-09T13:07:19.105Z,26.52
2023-04-09T13:12:21.896Z,28.61
2023-04-09T13:17:24.202Z,26.14
2023-04-09T13:22:26.429Z,29.11
2023-04-09T13:27:28.614Z,33.64
2023-04-09T13:32:31.071Z,37.86
2023-04-09T13:37:33.394Z,40.00
2023-04-09T13:42:37.480Z,40.57
2023-04-09T13:47:39.700Z,40.43
2023-04-09T13:52:41.914Z,39.35
2023-04-09T13:57:44.142Z,37.13
2023-04-09T14:02:46.674Z,29.56
2023-04-09T14:07:48.910Z,32.75
2023-04-09T14:12:51.533Z,32.63
2023-04-09T14:17:53.813Z,24.00
2023-04-09T14:22:56.223Z,23.42
2023-04-09T14:27:59.116Z,22.38
2023-04-09T14:33:01.826Z,25.31
2023-04-09T14:38:07.764Z,26.71
2023-04-09T14:43:10.422Z,25.30
2023-04-09T14:48:12.631Z,23.38
2023-04-09T14:53:14.844Z,22.95
2023-04-09T14:58:17.013Z,28.35
2023-04-09T15:03:19.611Z,33.12
2023-04-09T15:08:23.798Z,34.70
2023-04-09T15:13:26.080Z,37.18
2023-04-09T15:18:28.643Z,39.92
2023-04-09T15:23:31.162Z,42.20
2023-04-09T15:28:33.350Z,43.92
2023-04-09T15:33:35.540Z,46.38
2023-04-09T15:38:39.068Z,47.22
2023-04-09T15:43:41.283Z,48.07
2023-04-09T15:48:44.014Z,48.54
2023-04-09T15:53:46.245Z,49.30
2023-04-09T15:58:48.464Z,49.71
2023-04-09T16:03:52.484Z,50.69
2023-04-09T16:08:55.023Z,50.66
2023-04-09T16:13:57.552Z,51.68
2023-04-09T16:19:01.112Z,51.14
2023-04-09T16:24:03.913Z,50.57
2023-04-09T16:29:06.098Z,50.58
2023-04-09T16:34:08.412Z,52.33
2023-04-09T16:39:11.138Z,53.42
2023-04-09T16:44:13.280Z,53.75
2023-04-09T16:49:15.591Z,53.48
2023-04-09T16:54:17.847Z,54.85
2023-04-09T16:59:21.106Z,54.82
2023-04-09T17:04:23.362Z,55.20
2023-04-09T17:09:25.786Z,53.90
2023-04-09T17:14:28.090Z,54.36
2023-04-09T17:19:30.286Z,54.87
2023-04-09T17:24:36.785Z,55.86
2023-04-09T17:29:39.165Z,55.90
2023-04-09T17:34:41.352Z,56.66
2023-04-09T17:39:43.534Z,56.72
2023-04-09T17:44:46.124Z,56.22
2023-04-09T17:49:48.361Z,56.67
2023-04-09T17:54:51.046Z,57.01
2023-04-09T17:59:53.278Z,56.82
2023-04-09T18:04:56.516Z,57.52
2023-04-09T18:09:59.602Z,58.60
2023-04-09T18:15:02.080Z,60.18
2023-04-09T18:20:14.816Z,61.81
2023-04-09T18:25:17.165Z,63.02
2023-04-09T18:30:19.404Z,64.95
2023-04-09T18:35:21.675Z,65.87
2023-04-09T18:40:23.876Z,66.50
2023-04-09T18:45:26.135Z,66.47
2023-04-09T18:50:28.377Z,66.73
2023-04-09T18:55:30.779Z,67.25
2023-04-09T19:00:33.123Z,67.85
2023-04-09T19:05:36.105Z,68.52
2023-04-09T19:10:38.476Z,68.78
2023-04-09T19:15:40.722Z,69.96
2023-04-09T19:20:43.377Z,70.53
2023-04-09T19:25:59.087Z,70.76
2023-04-09T19:31:06.412Z,71.41
2023-04-09T19:36:08.747Z,72.17
2023-04-09T19:41:11.049Z,72.75
2023-04-09T19:46:13.417Z,73.24
2023-04-09T19:51:20.206Z,73.44
2023-04-09T19:56:22.583Z,73.74
2023-04-09T20:01:24.855Z,73.42
2023-04-09T20:06:30.836Z,74.03
2023-04-09T20:11:33.059Z,74.36
2023-04-09T20:16:35.475Z,74.52
2023-04-09T20:21:38.362Z,74.15
2023-04-09T20:26:40.720Z,74.08
2023-04-09T20:31:44.117Z,75.28
2023-04-09T20:36:47.734Z,75.54
2023-04-09T20:41:49.949Z,75.72
2023-04-09T20:46:52.195Z,75.27
2023-04-09T20:51:54.490Z,74.97
2023-04-09T20:56:56.720Z,75.63
2023-04-09T21:01:58.990Z,76.53
2023-04-09T21:07:01.413Z,76.35
2023-04-09T21:12:04.084Z,76.12
2023-04-09T21:17:06.486Z,76.33
2023-04-09T21:22:09.117Z,76.26
2023-04-09T21:27:11.447Z,76.28
2023-04-09T21:32:13.953Z,76.31
2023-04-09T21:37:16.377Z,76.74
2023-04-09T21:42:18.543Z,77.09
2023-04-09T21:47:21.006Z,77.42
2023-04-09T21:52:24.597Z,78.09
2023-04-09T21:57:26.870Z,78.42
2023-04-09T22:02:29.147Z,78.43
2023-04-09T22:07:31.570Z,77.45
2023-04-09T22:12:36.228Z,77.78
2023-04-09T22:17:38.758Z,78.79
2023-04-09T22:22:42.497Z,79.39
2023-04-09T22:27:44.781Z,80.14
2023-04-09T22:32:47.217Z,80.46
2023-04-09T22:37:49.375Z,80.52
2023-04-09T22:42:51.803Z,80.18
2023-04-09T22:47:53.969Z,80.09
2023-04-09T22:52:56.155Z,80.18
2023-04-09T22:57:59.664Z,81.08
2023-04-09T23:03:01.966Z,81.18
2023-04-09T23:08:04.594Z,81.20
2023-04-09T23:13:06.765Z,81.18
2023-04-09T23:18:09.261Z,81.70
2023-04-09T23:23:11.445Z,81.81
2023-04-09T23:28:13.653Z,81.88
2023-04-09T23:33:15.895Z,82.55
2023-04-09T23:38:18.166Z,82.50
2023-04-09T23:43:20.378Z,82.87
2023-04-09T23:48:22.536Z,83.20
2023-04-09T23:53:25.334Z,83.47
2023-04-09T23:58:27.535Z,83.66
